createdAt,value
2018-12-29T00:01:27.220Z,6.90
2018-12-29T00:03:59.221Z,6.90
2018-12-29T00:06:31.109Z,7.00
2018-12-29T00:09:03.005Z,7.00
2018-12-29T00:11:34.028Z,7.00
2018-12-29T00:14:05.953Z,7.00
2018-12-29T00:16:37.501Z,7.00
2018-12-29T00:19:08.551Z,7.00
2018-12-29T00:21:39.878Z,7.00
2018-12-29T00:24:11.506Z,7.00
2018-12-29T00:26:43.513Z,7.00
2018-12-29T00:29:15.360Z,7.00
2018-12-29T00:31:46.779Z,6.90
2018-12-29T00:34:18.687Z,6.90
2018-12-29T00:36:50.250Z,6.90
2018-12-29T00:39:23.145Z,6.90
2018-12-29T00:41:54.756Z,6.90
2018-12-29T00:44:25.806Z,7.00
2018-12-29T00:46:57.360Z,6.90
2018-12-29T00:49:29.070Z,6.90
2018-12-29T00:52:00.347Z,6.90
2018-12-29T00:54:31.721Z,7.00
2018-12-29T00:57:03.608Z,7.00
2018-12-29T00:59:35.181Z,7.00
2018-12-29T01:02:07.038Z,7.00
2018-12-29T01:04:38.322Z,7.10
2018-12-29T01:07:09.341Z,7.10
2018-12-29T01:09:42.651Z,7.00
2018-12-29T01:12:14.618Z,7.10
2018-12-29T01:14:45.800Z,7.10
2018-12-29T01:17:17.108Z,7.00
2018-12-29T01:19:48.452Z,7.00
2018-12-29T01:22:19.792Z,6.90
2018-12-29T01:24:51.588Z,6.90
2018-12-29T01:27:23.214Z,6.90
2018-12-29T01:29:54.841Z,6.90
2018-12-29T01:32:26.776Z,6.90
2018-12-29T01:34:58.073Z,6.90
2018-12-29T01:37:29.702Z,6.90
2018-12-29T01:40:01.240Z,6.90
2018-12-29T01:42:33.191Z,6.90
2018-12-29T01:45:05.478Z,6.90
2018-12-29T01:47:37.307Z,6.90
2018-12-29T01:50:09.344Z,6.80
2018-12-29T01:52:40.581Z,6.80
2018-12-29T01:55:11.745Z,6.80
2018-12-29T01:57:43.919Z,6.70
2018-12-29T02:00:15.813Z,6.70
2018-12-29T02:02:47.165Z,6.70
2018-12-29T02:05:18.491Z,6.70
2018-12-29T02:07:49.797Z,6.70
2018-12-29T02:10:21.605Z,6.60
2018-12-29T02:12:52.967Z,6.60
2018-12-29T02:15:24.978Z,6.60
2018-12-29T02:17:56.811Z,6.60
2018-12-29T02:20:28.207Z,6.60
2018-12-29T02:22:59.592Z,6.60
2018-12-29T02:25:30.874Z,6.60
2018-12-29T02:28:02.230Z,6.50
2018-12-29T02:30:33.826Z,6.40
2018-12-29T02:33:05.405Z,6.30
2018-12-29T02:35:37.277Z,6.30
2018-12-29T02:38:08.610Z,6.30
2018-12-29T02:40:40.487Z,6.30
2018-12-29T02:43:12.344Z,6.30
2018-12-29T02:45:44.206Z,6.30
2018-12-29T02:48:15.355Z,6.20
2018-12-29T02:50:47.302Z,6.20
2018-12-29T02:53:18.943Z,6.20
2018-12-29T02:55:50.511Z,6.20
2018-12-29T02:58:22.336Z,6.20
2018-12-29T03:00:54.401Z,6.20
2018-12-29T03:03:26.263Z,6.20
2018-12-29T03:05:58.631Z,6.20
2018-12-29T03:08:30.216Z,6.20
2018-12-29T03:11:02.176Z,6.20
2018-12-29T03:13:33.683Z,6.20
2018-12-29T03:16:05.593Z,6.20
2018-12-29T03:18:37.237Z,6.30
2018-12-29T03:21:09.414Z,6.30
2018-12-29T03:23:41.000Z,6.20
2018-12-29T03:26:12.269Z,6.20
2018-12-29T03:28:44.146Z,6.20
2018-12-29T03:31:16.031Z,6.30
2018-12-29T03:33:47.659Z,6.30
2018-12-29T03:36:20.212Z,6.30
2018-12-29T03:38:52.036Z,6.20
2018-12-29T03:41:23.835Z,6.30
2018-12-29T03:43:55.540Z,6.30
2018-12-29T03:46:27.148Z,6.30
2018-12-29T03:48:58.848Z,6.30
2018-12-29T03:51:30.468Z,6.30
2018-12-29T03:54:02.055Z,6.40
2018-12-29T03:56:33.934Z,6.40
2018-12-29T03:59:05.581Z,6.40
2018-12-29T04:01:36.593Z,6.40
2018-12-29T04:04:08.444Z,6.40
2018-12-29T04:06:40.388Z,6.40
2018-12-29T04:09:36.429Z,6.50
2018-12-29T04:12:20.346Z,6.50
2018-12-29T04:14:51.367Z,6.50
2018-12-29T04:17:22.948Z,6.50
2018-12-29T04:19:54.225Z,6.60
2018-12-29T04:22:25.276Z,6.50
2018-12-29T04:24:57.254Z,6.40
2018-12-29T04:27:29.120Z,6.50
2018-12-29T04:30:00.200Z,6.60
2018-12-29T04:32:31.601Z,6.60
2018-12-29T04:35:03.207Z,6.60
2018-12-29T04:37:34.779Z,6.60
2018-12-29T04:40:06.725Z,6.60
2018-12-29T04:42:38.576Z,6.60
2018-12-29T04:45:10.527Z,6.50
2018-12-29T04:47:42.134Z,6.50
2018-12-29T04:50:13.855Z,6.60
2018-12-29T04:52:45.238Z,6.60
2018-12-29T04:55:17.330Z,6.60
2018-12-29T04:57:49.001Z,6.50
2018-12-29T05:00:20.004Z,6.60
2018-12-29T05:02:52.164Z,6.50
2018-12-29T05:05:23.512Z,6.50
2018-12-29T05:07:55.118Z,6.50
2018-12-29T05:10:27.120Z,6.40
2018-12-29T05:12:59.390Z,6.50
2018-12-29T05:15:31.181Z,6.40
2018-12-29T05:18:02.796Z,6.40
2018-12-29T05:20:34.056Z,6.50
2018-12-29T05:23:05.361Z,6.50
2018-12-29T05:25:36.933Z,6.60
2018-12-29T05:28:08.457Z,6.60
2018-12-29T05:30:40.691Z,6.60
2018-12-29T05:33:12.603Z,6.70
2018-12-29T05:35:44.141Z,6.70
2018-12-29T05:38:15.916Z,6.70
2018-12-29T05:40:47.297Z,6.70
2018-12-29T05:43:18.307Z,6.70
2018-12-29T05:45:50.350Z,6.70
2018-12-29T05:48:21.923Z,6.70
2018-12-29T05:50:53.524Z,6.70
2018-12-29T05:53:24.843Z,6.80
2018-12-29T05:55:56.190Z,6.70
2018-12-29T05:58:27.869Z,6.80
2018-12-29T06:00:59.490Z,6.80
2018-12-29T06:03:31.053Z,6.80
2018-12-29T06:06:02.929Z,6.80
2018-12-29T06:08:34.778Z,6.90
2018-12-29T06:11:06.650Z,6.90
2018-12-29T06:13:39.083Z,6.90
2018-12-29T06:16:11.099Z,6.90
2018-12-29T06:18:42.725Z,6.90
2018-12-29T06:21:14.343Z,6.80
2018-12-29T06:23:46.432Z,6.80
2018-12-29T06:26:18.549Z,6.80
2018-12-29T06:28:50.346Z,6.80
2018-12-29T06:31:22.436Z,6.70
2018-12-29T06:33:53.982Z,6.80
2018-12-29T06:36:25.624Z,6.80
2018-12-29T06:38:58.028Z,6.80
2018-12-29T06:41:29.597Z,6.80
2018-12-29T06:44:00.874Z,6.80
2018-12-29T06:46:35.165Z,6.80
2018-12-29T06:49:07.264Z,6.80
2018-12-29T06:51:39.245Z,6.80
2018-12-29T06:54:11.275Z,6.80
2018-12-29T06:56:43.142Z,6.70
2018-12-29T06:59:14.433Z,6.70
2018-12-29T07:01:46.042Z,6.70
2018-12-29T07:04:17.388Z,6.60
2018-12-29T07:06:48.944Z,6.70
2018-12-29T07:09:20.954Z,6.70
2018-12-29T07:11:52.930Z,6.70
2018-12-29T07:14:24.195Z,6.70
2018-12-29T07:16:56.240Z,6.70
2018-12-29T07:19:28.077Z,6.80
2018-12-29T07:21:59.417Z,6.80
2018-12-29T07:24:31.037Z,6.90
2018-12-29T07:27:02.325Z,6.90
2018-12-29T07:29:38.192Z,6.90
2018-12-29T07:32:07.183Z,6.90
2018-12-29T07:34:38.265Z,6.90
2018-12-29T07:37:09.823Z,6.80
2018-12-29T07:39:41.736Z,6.80
2018-12-29T07:42:13.041Z,6.90
2018-12-29T07:44:44.586Z,6.90
2018-12-29T07:47:16.477Z,6.90
2018-12-29T07:49:48.296Z,6.80
2018-12-29T07:52:21.018Z,6.80
2018-12-29T07:54:52.344Z,6.80
2018-12-29T07:57:23.911Z,6.70
2018-12-29T07:59:55.255Z,6.70
2018-12-29T08:02:26.871Z,6.70
2018-12-29T08:04:58.115Z,6.60
2018-12-29T08:07:29.987Z,6.60
2018-12-29T08:10:01.347Z,6.60
2018-12-29T08:12:32.924Z,6.60
2018-12-29T08:15:04.345Z,6.60
2018-12-29T08:17:35.688Z,6.60
2018-12-29T08:20:06.900Z,6.60
2018-12-29T08:22:38.875Z,6.60
2018-12-29T08:25:10.446Z,6.60
2018-12-29T08:27:42.340Z,6.60
2018-12-29T08:30:14.607Z,6.70
2018-12-29T08:32:46.800Z,6.70
2018-12-29T08:35:18.639Z,6.80
2018-12-29T08:37:50.027Z,6.80
2018-12-29T08:40:21.916Z,6.80
2018-12-29T08:42:53.141Z,6.80
2018-12-29T08:45:24.785Z,6.80
2018-12-29T08:47:56.701Z,6.80
2018-12-29T08:50:28.409Z,6.90
2018-12-29T08:52:59.868Z,6.90
2018-12-29T08:55:31.775Z,7.00
2018-12-29T08:58:03.077Z,7.10
2018-12-29T09:00:34.682Z,7.20
2018-12-29T09:03:06.541Z,7.20
2018-12-29T09:05:38.179Z,7.30
2018-12-29T09:08:09.508Z,7.30
2018-12-29T09:10:41.038Z,7.40
2018-12-29T09:13:12.804Z,7.50
2018-12-29T09:15:44.639Z,7.60
2018-12-29T09:18:16.387Z,7.70
2018-12-29T09:20:47.687Z,7.80
2018-12-29T09:23:19.252Z,7.80
2018-12-29T09:25:51.217Z,7.80
2018-12-29T09:28:23.741Z,7.90
2018-12-29T09:30:55.644Z,7.90
2018-12-29T09:33:27.671Z,7.90
2018-12-29T09:35:59.346Z,8.00
2018-12-29T09:38:31.248Z,8.10
2018-12-29T09:41:03.159Z,8.40
2018-12-29T09:43:35.046Z,8.80
2018-12-29T09:46:07.303Z,9.20
2018-12-29T09:48:39.199Z,9.50
2018-12-29T09:51:10.796Z,9.80
2018-12-29T09:53:42.382Z,10.00
2018-12-29T09:56:14.725Z,10.00
2018-12-29T09:58:46.843Z,9.80
2018-12-29T10:01:18.714Z,9.60
2018-12-29T10:03:49.987Z,9.40
2018-12-29T10:06:21.541Z,9.30
2018-12-29T10:08:53.193Z,9.30
2018-12-29T10:11:24.721Z,9.30
2018-12-29T10:13:56.339Z,9.40
2018-12-29T10:16:27.911Z,9.30
2018-12-29T10:18:59.142Z,9.20
2018-12-29T10:21:31.269Z,9.10
2018-12-29T10:24:03.163Z,9.00
2018-12-29T10:26:35.060Z,8.90
2018-12-29T10:29:06.781Z,8.90
2018-12-29T10:31:38.406Z,8.80
2018-12-29T10:34:10.255Z,8.80
2018-12-29T10:36:42.603Z,8.80
2018-12-29T10:39:14.167Z,8.80
2018-12-29T10:41:45.869Z,8.80
2018-12-29T10:44:17.734Z,8.90
2018-12-29T10:46:49.386Z,9.00
2018-12-29T10:49:20.695Z,9.20
2018-12-29T10:51:52.461Z,9.30
2018-12-29T10:54:23.689Z,9.30
2018-12-29T10:56:55.820Z,9.30
2018-12-29T10:59:26.820Z,9.40
2018-12-29T11:01:58.735Z,9.40
2018-12-29T11:04:30.656Z,9.30
2018-12-29T11:07:02.731Z,9.20
2018-12-29T11:09:34.888Z,9.00
2018-12-29T11:12:06.553Z,8.80
2018-12-29T11:14:38.374Z,8.80
2018-12-29T11:17:09.421Z,8.80
2018-12-29T11:19:41.363Z,8.80
2018-12-29T11:22:12.930Z,8.60
2018-12-29T11:24:44.481Z,8.60
2018-12-29T11:27:15.864Z,8.50
2018-12-29T11:29:47.724Z,8.40
2018-12-29T11:32:18.729Z,8.20
2018-12-29T11:34:50.529Z,8.20
2018-12-29T11:37:22.380Z,8.10
2018-12-29T11:39:54.338Z,8.00
2018-12-29T11:42:26.193Z,7.90
2018-12-29T11:44:58.212Z,7.80
2018-12-29T11:47:29.815Z,7.70
2018-12-29T11:50:01.441Z,7.70
2018-12-29T11:52:33.351Z,7.60
2018-12-29T11:55:05.543Z,7.60
2018-12-29T11:57:37.343Z,7.60
2018-12-29T12:00:10.403Z,7.60
2018-12-29T12:02:42.268Z,7.60
2018-12-29T12:05:14.095Z,7.50
2018-12-29T12:07:45.707Z,7.40
2018-12-29T12:10:17.672Z,7.40
2018-12-29T12:12:49.678Z,7.30
2018-12-29T12:15:20.678Z,7.30
2018-12-29T12:18:06.416Z,7.40
2018-12-29T12:20:26.346Z,7.40
2018-12-29T12:22:57.369Z,7.40
2018-12-29T12:25:28.901Z,7.40
2018-12-29T12:28:00.864Z,7.30
2018-12-29T12:30:32.414Z,7.30
2018-12-29T12:33:03.978Z,7.30
2018-12-29T12:35:35.926Z,7.30
2018-12-29T12:38:07.294Z,7.30
2018-12-29T12:40:38.871Z,7.20
2018-12-29T12:43:10.213Z,7.20
2018-12-29T12:45:42.405Z,7.20
2018-12-29T12:48:14.143Z,7.10
2018-12-29T12:50:46.469Z,7.10
2018-12-29T12:53:18.689Z,7.10
2018-12-29T12:55:50.313Z,7.10
2018-12-29T12:58:23.629Z,7.00
2018-12-29T13:00:55.918Z,7.00
2018-12-29T13:03:27.969Z,7.00
2018-12-29T13:05:59.756Z,7.00
2018-12-29T13:08:31.361Z,7.00
2018-12-29T13:11:02.991Z,7.00
2018-12-29T13:13:35.086Z,7.00
2018-12-29T13:16:06.851Z,7.00
2018-12-29T13:18:38.191Z,7.00
2018-12-29T13:21:09.753Z,7.00
2018-12-29T13:23:41.417Z,6.90
2018-12-29T13:26:13.714Z,6.90
2018-12-29T13:28:45.291Z,7.00
2018-12-29T13:31:17.419Z,7.00
2018-12-29T13:33:48.431Z,7.00
2018-12-29T13:36:20.743Z,7.00
2018-12-29T13:38:52.310Z,6.90
2018-12-29T13:41:24.059Z,6.90
2018-12-29T13:43:55.301Z,7.00
2018-12-29T13:46:26.801Z,6.90
2018-12-29T13:48:58.139Z,6.90
2018-12-29T13:51:29.461Z,6.90
2018-12-29T13:54:00.850Z,6.80
2018-12-29T13:56:32.498Z,6.90
2018-12-29T13:59:03.586Z,6.90
2018-12-29T14:01:35.440Z,6.90
2018-12-29T14:04:07.029Z,6.90
2018-12-29T14:06:39.069Z,6.90
2018-12-29T14:09:10.379Z,6.90
2018-12-29T14:11:41.409Z,6.80
2018-12-29T14:14:12.418Z,6.80
2018-12-29T14:16:44.095Z,6.80
2018-12-29T14:19:15.985Z,6.80
2018-12-29T14:21:47.567Z,6.80
2018-12-29T14:24:19.159Z,6.80
2018-12-29T14:26:51.469Z,6.80
2018-12-29T14:29:23.031Z,6.80
2018-12-29T14:31:54.886Z,6.80
2018-12-29T14:34:27.115Z,6.90
2018-12-29T14:36:58.722Z,6.90
2018-12-29T14:39:30.004Z,6.90
2018-12-29T14:42:01.820Z,7.00
2018-12-29T14:44:33.432Z,7.00
2018-12-29T14:47:05.031Z,7.00
2018-12-29T14:49:36.710Z,7.10
2018-12-29T14:52:08.287Z,7.00
2018-12-29T14:54:39.587Z,7.00
2018-12-29T14:57:11.192Z,7.00
2018-12-29T14:59:42.821Z,7.00
2018-12-29T15:02:14.452Z,7.00
2018-12-29T15:04:46.234Z,7.10
2018-12-29T15:07:18.937Z,7.20
2018-12-29T15:09:51.044Z,7.20
2018-12-29T15:12:22.895Z,7.10
2018-12-29T15:14:56.061Z,7.10
2018-12-29T15:17:28.208Z,7.20
2018-12-29T15:19:59.208Z,7.10
2018-12-29T15:22:30.528Z,7.10
2018-12-29T15:25:02.447Z,7.20
2018-12-29T15:27:34.270Z,7.20
2018-12-29T15:30:06.085Z,7.20
2018-12-29T15:32:37.630Z,7.10
2018-12-29T15:35:09.510Z,7.20
2018-12-29T15:37:41.105Z,7.10
2018-12-29T15:40:12.921Z,7.10
2018-12-29T15:42:45.100Z,7.10
2018-12-29T15:45:17.235Z,7.10
2018-12-29T15:47:49.073Z,7.00
2018-12-29T15:50:20.694Z,7.00
2018-12-29T15:52:52.729Z,7.00
2018-12-29T15:55:23.741Z,7.00
2018-12-29T15:57:55.484Z,7.10
2018-12-29T16:00:27.731Z,7.10
2018-12-29T16:02:59.973Z,7.10
2018-12-29T16:05:32.035Z,7.10
2018-12-29T16:08:03.867Z,7.10
2018-12-29T16:10:35.682Z,7.10
2018-12-29T16:13:07.184Z,7.00
2018-12-29T16:15:38.809Z,7.00
2018-12-29T16:18:10.696Z,6.90
2018-12-29T16:20:42.921Z,7.00
2018-12-29T16:23:14.741Z,7.10
2018-12-29T16:25:46.261Z,7.10
2018-12-29T16:28:17.898Z,7.10
2018-12-29T16:30:49.577Z,7.10
2018-12-29T16:33:22.429Z,7.10
2018-12-29T16:35:54.288Z,7.10
2018-12-29T16:38:26.000Z,7.10
2018-12-29T16:40:58.205Z,7.00
2018-12-29T16:43:29.993Z,7.00
2018-12-29T16:46:01.799Z,6.90
2018-12-29T16:48:33.385Z,6.90
2018-12-29T16:51:05.681Z,6.90
2018-12-29T16:53:37.644Z,7.00
2018-12-29T16:56:08.888Z,7.00
2018-12-29T16:58:40.644Z,7.00
2018-12-29T17:01:12.724Z,7.00
2018-12-29T17:03:44.322Z,7.10
2018-12-29T17:06:16.042Z,7.00
2018-12-29T17:08:47.680Z,7.00
2018-12-29T17:11:19.029Z,7.00
2018-12-29T17:13:51.095Z,6.90
2018-12-29T17:16:22.471Z,6.90
2018-12-29T17:18:53.811Z,6.80
2018-12-29T17:21:24.809Z,6.80
2018-12-29T17:23:56.275Z,6.70
2018-12-29T17:26:27.578Z,6.60
2018-12-29T17:28:59.490Z,6.40
2018-12-29T17:31:30.931Z,6.30
2018-12-29T17:34:02.360Z,6.20
2018-12-29T17:36:41.726Z,6.10
2018-12-29T17:39:08.517Z,6.00
2018-12-29T17:41:40.065Z,5.90
2018-12-29T17:44:11.621Z,5.80
2018-12-29T17:46:43.186Z,5.80
2018-12-29T17:49:22.507Z,5.80
2018-12-29T17:51:47.895Z,5.70
2018-12-29T17:54:19.470Z,5.60
2018-12-29T17:56:51.161Z,5.50
2018-12-29T17:59:22.540Z,5.50
2018-12-29T18:01:54.366Z,5.40
2018-12-29T18:04:25.356Z,5.30
2018-12-29T18:06:56.665Z,5.20
2018-12-29T18:09:28.315Z,5.20
2018-12-29T18:12:00.281Z,5.10
2018-12-29T18:14:32.618Z,5.10
2018-12-29T18:17:04.514Z,5.10
2018-12-29T18:19:36.164Z,5.00
2018-12-29T18:22:08.208Z,5.00
2018-12-29T18:24:39.707Z,5.00
2018-12-29T18:27:12.466Z,5.00
2018-12-29T18:29:45.575Z,5.00
2018-12-29T18:32:17.159Z,5.00
2018-12-29T18:34:48.744Z,5.00
2018-12-29T18:37:20.307Z,5.00
2018-12-29T18:39:52.244Z,5.00
2018-12-29T18:42:23.503Z,5.00
2018-12-29T18:44:55.058Z,5.00
2018-12-29T18:47:27.171Z,5.00
2018-12-29T18:50:00.201Z,5.00
2018-12-29T18:52:31.983Z,5.10
2018-12-29T18:55:04.235Z,5.00
2018-12-29T18:57:35.789Z,5.00
2018-12-29T19:00:07.665Z,5.00
2018-12-29T19:02:39.742Z,5.00
2018-12-29T19:05:11.416Z,5.00
2018-12-29T19:07:43.131Z,5.00
2018-12-29T19:10:15.652Z,5.00
2018-12-29T19:12:47.458Z,5.10
2018-12-29T19:15:19.119Z,5.10
2018-12-29T19:17:50.970Z,5.20
2018-12-29T19:20:23.118Z,5.20
2018-12-29T19:22:55.313Z,5.30
2018-12-29T19:25:26.966Z,5.30
2018-12-29T19:27:58.824Z,5.30
2018-12-29T19:30:31.044Z,5.30
2018-12-29T19:33:03.178Z,5.30
2018-12-29T19:35:35.437Z,5.30
2018-12-29T19:38:07.522Z,5.30
2018-12-29T19:40:38.919Z,5.30
2018-12-29T19:43:11.102Z,5.30
2018-12-29T19:45:42.608Z,5.30
2018-12-29T19:48:13.859Z,5.30
2018-12-29T19:50:45.383Z,5.40
2018-12-29T19:53:17.612Z,5.40
2018-12-29T19:55:49.442Z,5.40
2018-12-29T19:58:21.069Z,5.40
2018-12-29T20:00:52.891Z,5.40
2018-12-29T20:03:24.700Z,5.40
2018-12-29T20:05:57.183Z,5.30
2018-12-29T20:08:29.048Z,5.30
2018-12-29T20:11:00.302Z,5.20
2018-12-29T20:13:32.402Z,5.20
2018-12-29T20:16:04.366Z,5.20
2018-12-29T20:18:36.457Z,5.20
2018-12-29T20:21:07.935Z,5.30
2018-12-29T20:23:39.209Z,5.20
2018-12-29T20:26:11.430Z,5.20
2018-12-29T20:28:43.204Z,5.20
2018-12-29T20:31:14.939Z,5.20
2018-12-29T20:33:46.248Z,5.20
2018-12-29T20:36:17.895Z,5.20
2018-12-29T20:38:48.887Z,5.20
2018-12-29T20:41:20.570Z,5.10
2018-12-29T20:43:52.416Z,5.10
2018-12-29T20:46:23.970Z,5.10
2018-12-29T20:48:55.559Z,5.10
2018-12-29T20:51:27.191Z,5.10
2018-12-29T20:53:58.770Z,5.10
2018-12-29T20:56:30.423Z,5.10
2018-12-29T20:59:02.079Z,5.10
2018-12-29T21:01:33.566Z,5.10
2018-12-29T21:04:05.789Z,5.10
2018-12-29T21:06:37.965Z,5.10
2018-12-29T21:09:09.619Z,5.10
2018-12-29T21:11:41.011Z,5.20
2018-12-29T21:14:12.787Z,5.20
2018-12-29T21:16:44.377Z,5.20
2018-12-29T21:19:16.388Z,5.20
2018-12-29T21:21:48.911Z,5.30
2018-12-29T21:24:20.636Z,5.30
2018-12-29T21:26:52.733Z,5.40
2018-12-29T21:29:24.242Z,5.40
2018-12-29T21:31:56.566Z,5.40
2018-12-29T21:34:28.382Z,5.30
2018-12-29T21:37:01.014Z,5.30
2018-12-29T21:39:34.320Z,5.30
2018-12-29T21:42:07.132Z,5.20
2018-12-29T21:44:40.043Z,5.20
2018-12-29T21:47:11.892Z,5.20
2018-12-29T21:49:43.634Z,5.20
2018-12-29T21:52:14.913Z,5.30
2018-12-29T21:54:46.535Z,5.30
2018-12-29T21:57:17.814Z,5.50
2018-12-29T21:59:49.644Z,5.50
2018-12-29T22:02:21.634Z,5.50
2018-12-29T22:04:53.651Z,5.60
2018-12-29T22:07:24.649Z,5.70
2018-12-29T22:09:56.583Z,5.80
2018-12-29T22:12:28.235Z,5.80
2018-12-29T22:15:00.352Z,5.80
2018-12-29T22:17:32.042Z,5.90
2018-12-29T22:20:03.697Z,6.00
2018-12-29T22:22:35.801Z,6.10
2018-12-29T22:25:06.963Z,6.10
2018-12-29T22:27:37.973Z,6.30
2018-12-29T22:30:09.853Z,6.40
2018-12-29T22:32:41.583Z,6.50
2018-12-29T22:35:13.364Z,6.60
2018-12-29T22:37:44.899Z,6.70
2018-12-29T22:40:16.766Z,6.80
2018-12-29T22:42:48.474Z,6.80
2018-12-29T22:45:20.044Z,6.80
2018-12-29T22:47:51.953Z,6.80
2018-12-29T22:50:23.224Z,6.90
2018-12-29T22:52:54.812Z,6.90
2018-12-29T22:55:26.391Z,6.90
2018-12-29T22:57:57.717Z,7.00
2018-12-29T23:00:42.785Z,7.00
2018-12-29T23:03:16.092Z,7.10
2018-12-29T23:05:48.034Z,7.10
2018-12-29T23:08:19.300Z,7.20
2018-12-29T23:10:50.853Z,7.30
2018-12-29T23:13:22.616Z,7.30
2018-12-29T23:15:53.619Z,7.40
2018-12-29T23:18:25.181Z,7.40
2018-12-29T23:20:56.510Z,7.40
2018-12-29T23:23:27.533Z,7.40
2018-12-29T23:26:00.155Z,7.40
2018-12-29T23:28:31.696Z,7.40
2018-12-29T23:31:03.581Z,7.50
2018-12-29T23:33:35.308Z,7.50
2018-12-29T23:36:06.950Z,7.50
2018-12-29T23:38:38.684Z,7.50
2018-12-29T23:41:09.995Z,7.50
2018-12-29T23:43:42.303Z,7.60
2018-12-29T23:46:13.978Z,7.60
2018-12-29T23:48:44.988Z,7.60
2018-12-29T23:51:16.264Z,7.60
2018-12-29T23:53:47.755Z,7.70
2018-12-29T23:56:19.925Z,7.70
2018-12-29T23:58:51.242Z,7.70
